<?xml version="1.0" encoding="UTF-8" standalone="no" ?>
<gpx xmlns="http://www.topografix.com/GPX/1/1" xmlns:xsi="http://www.w3.org/2001/XMLSchema-instance" xsi:schemaLocation="http://www.topografix.com/GPX/1/1 http://www.topografix.com/GPX/1/1/gpx.xsd" version="1.1" creator="VisuGPX - https://www.visugpx.com">
  <metadata>
    <name>luzech 6 descentes</name>
    <desc><![CDATA[parcours typé enduro avec de belles descentes]]></desc>
  </metadata>
  <trk>
    <name><![CDATA[2014-04-01-08-18-57]]></name>
    <trkseg>
      <trkpt lat="44.45049" lon="1.29429">
        <ele>285.504</ele>
        <time>2014-04-01T09:45:55Z</time>
      </trkpt>
      <trkpt lat="44.45052" lon="1.29446">
        <ele>284.524</ele>
        <time>2014-04-01T09:46:00Z</time>
      </trkpt>
      <trkpt lat="44.45055" lon="1.29469">
        <ele>283.254</ele>
        <time>2014-04-01T09:46:05Z</time>
      </trkpt>
      <trkpt lat="44.45059" lon="1.29499">
        <ele>282.435</ele>
        <time>2014-04-01T09:46:10Z</time>
      </trkpt>
      <trkpt lat="44.45063" lon="1.2952">
        <ele>282.675</ele>
        <time>2014-04-01T09:46:14Z</time>
      </trkpt>
      <trkpt lat="44.45065" lon="1.29542">
        <ele>281.184</ele>
        <time>2014-04-01T09:46:18Z</time>
      </trkpt>
      <trkpt lat="44.45068" lon="1.29568">
        <ele>279.313</ele>
        <time>2014-04-01T09:46:22Z</time>
      </trkpt>
      <trkpt lat="44.45058" lon="1.29582">
        <ele>276.262</ele>
        <time>2014-04-01T09:46:26Z</time>
      </trkpt>
      <trkpt lat="44.45044" lon="1.29591">
        <ele>271.531</ele>
        <time>2014-04-01T09:46:30Z</time>
      </trkpt>
      <trkpt lat="44.45047" lon="1.29606">
        <ele>266.469</ele>
        <time>2014-04-01T09:46:33Z</time>
      </trkpt>
      <trkpt lat="44.45049" lon="1.29612">
        <ele>264.669</ele>
        <time>2014-04-01T09:46:34Z</time>
      </trkpt>
      <trkpt lat="44.45059" lon="1.29631">
        <ele>259.698</ele>
        <time>2014-04-01T09:46:37Z</time>
      </trkpt>
      <trkpt lat="44.4507" lon="1.29652">
        <ele>254.69</ele>
        <time>2014-04-01T09:46:41Z</time>
      </trkpt>
      <trkpt lat="44.4506" lon="1.29661">
        <ele>251.091</ele>
        <time>2014-04-01T09:46:44Z</time>
      </trkpt>
      <trkpt lat="44.4504" lon="1.29671">
        <ele>243.778</ele>
        <time>2014-04-01T09:46:49Z</time>
      </trkpt>
      <trkpt lat="44.45037" lon="1.29673">
        <ele>242.087</ele>
        <time>2014-04-01T09:46:50Z</time>
      </trkpt>
      <trkpt lat="44.45027" lon="1.29685">
        <ele>235.739</ele>
        <time>2014-04-01T09:46:54Z</time>
      </trkpt>
      <trkpt lat="44.45031" lon="1.297">
        <ele>231.922</ele>
        <time>2014-04-01T09:46:58Z</time>
      </trkpt>
      <trkpt lat="44.45041" lon="1.29721">
        <ele>227</ele>
        <time>2014-04-01T09:47:03Z</time>
      </trkpt>
      <trkpt lat="44.45038" lon="1.29731">
        <ele>223</ele>
        <time>2014-04-01T09:47:06Z</time>
      </trkpt>
      <trkpt lat="44.45044" lon="1.29753">
        <ele>216.159</ele>
        <time>2014-04-01T09:47:11Z</time>
      </trkpt>
      <trkpt lat="44.45045" lon="1.29758">
        <ele>215.15</ele>
        <time>2014-04-01T09:47:12Z</time>
      </trkpt>
      <trkpt lat="44.45041" lon="1.29768">
        <ele>211.472</ele>
        <time>2014-04-01T09:47:16Z</time>
      </trkpt>
      <trkpt lat="44.45042" lon="1.29773">
        <ele>209.132</ele>
        <time>2014-04-01T09:47:19Z</time>
      </trkpt>
      <trkpt lat="44.45053" lon="1.29786">
        <ele>206.383</ele>
        <time>2014-04-01T09:47:24Z</time>
      </trkpt>
      <trkpt lat="44.45058" lon="1.29793">
        <ele>204.712</ele>
        <time>2014-04-01T09:47:26Z</time>
      </trkpt>
      <trkpt lat="44.45056" lon="1.29801">
        <ele>203.144</ele>
        <time>2014-04-01T09:47:30Z</time>
      </trkpt>
      <trkpt lat="44.45047" lon="1.29808">
        <ele>200.611</ele>
        <time>2014-04-01T09:47:33Z</time>
      </trkpt>
      <trkpt lat="44.45033" lon="1.29816">
        <ele>195.562</ele>
        <time>2014-04-01T09:47:38Z</time>
      </trkpt>
      <trkpt lat="44.45037" lon="1.2983">
        <ele>191.962</ele>
        <time>2014-04-01T09:47:42Z</time>
      </trkpt>
      <trkpt lat="44.45044" lon="1.29837">
        <ele>190.402</ele>
        <time>2014-04-01T09:47:44Z</time>
      </trkpt>
      <trkpt lat="44.45051" lon="1.29846">
        <ele>188.032</ele>
        <time>2014-04-01T09:47:47Z</time>
      </trkpt>
      <trkpt lat="44.45044" lon="1.29855">
        <ele>184.972</ele>
        <time>2014-04-01T09:47:51Z</time>
      </trkpt>
      <trkpt lat="44.45034" lon="1.29858">
        <ele>182.242</ele>
        <time>2014-04-01T09:47:54Z</time>
      </trkpt>
      <trkpt lat="44.45036" lon="1.29871">
        <ele>178.872</ele>
        <time>2014-04-01T09:47:58Z</time>
      </trkpt>
      <trkpt lat="44.45053" lon="1.29885">
        <ele>174.5</ele>
        <time>2014-04-01T09:48:02Z</time>
      </trkpt>
      <trkpt lat="44.45059" lon="1.29895">
        <ele>171.081</ele>
        <time>2014-04-01T09:48:06Z</time>
      </trkpt>
      <trkpt lat="44.45053" lon="1.29901">
        <ele>168.663</ele>
        <time>2014-04-01T09:48:09Z</time>
      </trkpt>
      <trkpt lat="44.45044" lon="1.29907">
        <ele>166.761</ele>
        <time>2014-04-01T09:48:11Z</time>
      </trkpt>
      <trkpt lat="44.45019" lon="1.29914">
        <ele>162.542</ele>
        <time>2014-04-01T09:48:16Z</time>
      </trkpt>
      <trkpt lat="44.45016" lon="1.29914">
        <ele>161.361</ele>
        <time>2014-04-01T09:48:17Z</time>
      </trkpt>
      <trkpt lat="44.45014" lon="1.2992">
        <ele>158.663</ele>
        <time>2014-04-01T09:48:21Z</time>
      </trkpt>
      <trkpt lat="44.45022" lon="1.29932">
        <ele>156.472</ele>
        <time>2014-04-01T09:48:24Z</time>
      </trkpt>
      <trkpt lat="44.45026" lon="1.29936">
        <ele>155.733</ele>
        <time>2014-04-01T09:48:25Z</time>
      </trkpt>
      <trkpt lat="44.45034" lon="1.29945">
        <ele>154.002</ele>
        <time>2014-04-01T09:48:27Z</time>
      </trkpt>
      <trkpt lat="44.45043" lon="1.29955">
        <ele>151.03</ele>
        <time>2014-04-01T09:48:31Z</time>
      </trkpt>
      <trkpt lat="44.45042" lon="1.29956">
        <ele>150.373</ele>
        <time>2014-04-01T09:48:32Z</time>
      </trkpt>
      <trkpt lat="44.45016" lon="1.29972">
        <ele>144.182</ele>
        <time>2014-04-01T09:48:39Z</time>
      </trkpt>
      <trkpt lat="44.45021" lon="1.29985">
        <ele>140.432</ele>
        <time>2014-04-01T09:48:43Z</time>
      </trkpt>
      <trkpt lat="44.45022" lon="1.29994">
        <ele>138.022</ele>
        <time>2014-04-01T09:48:46Z</time>
      </trkpt>
      <trkpt lat="44.45019" lon="1.29995">
        <ele>136.921</ele>
        <time>2014-04-01T09:48:47Z</time>
      </trkpt>
      <trkpt lat="44.45012" lon="1.29996">
        <ele>134.94</ele>
        <time>2014-04-01T09:48:49Z</time>
      </trkpt>
      <trkpt lat="44.4501" lon="1.30006">
        <ele>131.733</ele>
        <time>2014-04-01T09:48:53Z</time>
      </trkpt>
      <trkpt lat="44.45004" lon="1.30008">
        <ele>129.622</ele>
        <time>2014-04-01T09:48:56Z</time>
      </trkpt>
      <trkpt lat="44.45004" lon="1.30013">
        <ele>127.983</ele>
        <time>2014-04-01T09:48:58Z</time>
      </trkpt>
      <trkpt lat="44.45005" lon="1.30016">
        <ele>126.994</ele>
        <time>2014-04-01T09:49:02Z</time>
      </trkpt>
    </trkseg>
  </trk>
</gpx>